sensor_id;sensor_type;location;lat;lon;timestamp;pressure;altitude;pressure_sealevel;temperature;humidity
75933;BME280;64803;52.356;5.310;2023-04-06T00:02:01;102168.88;;;2.81;81.29
75933;BME280;64803;52.356;5.310;2023-04-06T00:04:28;102169.38;;;2.73;81.77
75933;BME280;64803;52.356;5.310;2023-04-06T00:06:54;102152.72;;;2.57;83.34
75933;BME280;64803;52.356;5.310;2023-04-06T00:09:20;102163.50;;;2.54;83.31
75933;BME280;64803;52.356;5.310;2023-04-06T00:11:46;102164.84;;;2.47;83.74
75933;BME280;64803;52.356;5.310;2023-04-06T00:14:12;102160.94;;;2.39;84.09
75933;BME280;64803;52.356;5.310;2023-04-06T00:16:40;102162.94;;;2.35;83.93
75933;BME280;64803;52.356;5.310;2023-04-06T00:19:06;102151.75;;;2.30;83.96
75933;BME280;64803;52.356;5.310;2023-04-06T00:21:32;102156.69;;;2.36;82.87
75933;BME280;64803;52.356;5.310;2023-04-06T00:23:58;102152.72;;;2.43;83.25
75933;BME280;64803;52.356;5.310;2023-04-06T00:26:25;102153.28;;;2.48;82.12
75933;BME280;64803;52.356;5.310;2023-04-06T00:28:52;102145.22;;;2.50;82.29
75933;BME280;64803;52.356;5.310;2023-04-06T00:31:18;102146.94;;;2.51;81.60
75933;BME280;64803;52.356;5.310;2023-04-06T00:33:44;102141.75;;;2.49;84.18
75933;BME280;64803;52.356;5.310;2023-04-06T00:36:10;102136.81;;;2.43;82.76
75933;BME280;64803;52.356;5.310;2023-04-06T00:38:36;102137.88;;;2.41;82.76
75933;BME280;64803;52.356;5.310;2023-04-06T00:41:03;102144.19;;;2.38;82.20
75933;BME280;64803;52.356;5.310;2023-04-06T00:43:30;102135.13;;;2.42;81.83
75933;BME280;64803;52.356;5.310;2023-04-06T00:45:56;102134.16;;;2.43;82.17
75933;BME280;64803;52.356;5.310;2023-04-06T00:48:23;102116.16;;;2.48;81.56
75933;BME280;64803;52.356;5.310;2023-04-06T00:50:49;102119.28;;;2.55;81.44
75933;BME280;64803;52.356;5.310;2023-04-06T00:53:15;102109.72;;;2.52;80.96
75933;BME280;64803;52.356;5.310;2023-04-06T00:55:42;102110.50;;;2.54;80.62
75933;BME280;64803;52.356;5.310;2023-04-06T00:58:08;102113.13;;;2.54;80.96
75933;BME280;64803;52.356;5.310;2023-04-06T01:00:43;102106.97;;;2.54;81.09
75933;BME280;64803;52.356;5.310;2023-04-06T01:03:15;102103.28;;;2.56;81.03
75933;BME280;64803;52.356;5.310;2023-04-06T01:05:42;102106.41;;;2.63;81.24
75933;BME280;64803;52.356;5.310;2023-04-06T01:08:17;102106.41;;;2.63;81.47
75933;BME280;64803;52.356;5.310;2023-04-06T01:10:44;102098.34;;;2.64;81.21
75933;BME280;64803;52.356;5.310;2023-04-06T01:13:24;102092.00;;;2.67;81.02
75933;BME280;64803;52.356;5.310;2023-04-06T01:15:54;102094.75;;;2.65;81.50
75933;BME280;64803;52.356;5.310;2023-04-06T01:18:28;102092.28;;;2.62;81.35
75933;BME280;64803;52.356;5.310;2023-04-06T01:21:15;102064.09;;;2.47;81.29
75933;BME280;64803;52.356;5.310;2023-04-06T01:23:51;102077.50;;;2.58;80.47
75933;BME280;64803;52.356;5.310;2023-04-06T01:26:24;102073.72;;;2.62;80.85
75933;BME280;64803;52.356;5.310;2023-04-06T01:28:52;102068.22;;;2.65;81.01
75933;BME280;64803;52.356;5.310;2023-04-06T01:31:29;102069.75;;;2.69;80.48
75933;BME280;64803;52.356;5.310;2023-04-06T01:33:55;102065.09;;;2.73;80.75
75933;BME280;64803;52.356;5.310;2023-04-06T01:36:24;102059.13;;;2.69;79.99
75933;BME280;64803;52.356;5.310;2023-04-06T01:39:11;102064.06;;;2.75;80.16
75933;BME280;64803;52.356;5.310;2023-04-06T01:41:39;102063.84;;;2.78;80.22
75933;BME280;64803;52.356;5.310;2023-04-06T01:44:05;102063.63;;;2.81;80.34
75933;BME280;64803;52.356;5.310;2023-04-06T01:46:32;102055.41;;;2.86;79.68
75933;BME280;64803;52.356;5.310;2023-04-06T01:48:59;102059.44;;;2.91;80.81
75933;BME280;64803;52.356;5.310;2023-04-06T01:51:37;102014.59;;;2.74;80.14
75933;BME280;64803;52.356;5.310;2023-04-06T01:54:06;102053.31;;;3.03;80.49
75933;BME280;64803;52.356;5.310;2023-04-06T01:56:42;102041.47;;;3.09;80.03
75933;BME280;64803;52.356;5.310;2023-04-06T01:59:23;102042.00;;;3.14;79.55
75933;BME280;64803;52.356;5.310;2023-04-06T02:01:49;102011.75;;;3.04;80.09
75933;BME280;64803;52.356;5.310;2023-04-06T02:04:15;102044.72;;;3.26;79.46
75933;BME280;64803;52.356;5.310;2023-04-06T02:06:43;102023.44;;;3.14;78.47
75933;BME280;64803;52.356;5.310;2023-04-06T02:09:11;102037.19;;;3.33;79.33
75933;BME280;64803;52.356;5.310;2023-04-06T02:11:37;102041.44;;;3.35;78.15
75933;BME280;64803;52.356;5.310;2023-04-06T02:14:03;102027.31;;;3.35;78.93
75933;BME280;64803;52.356;5.310;2023-04-06T02:16:33;102027.78;;;3.41;78.28
75933;BME280;64803;52.356;5.310;2023-04-06T02:18:59;102023.09;;;3.45;79.34
75933;BME280;64803;52.356;5.310;2023-04-06T02:21:25;102023.94;;;3.45;78.54
75933;BME280;64803;52.356;5.310;2023-04-06T02:23:51;102001.63;;;3.35;78.43
75933;BME280;64803;52.356;5.310;2023-04-06T02:26:17;102019.50;;;3.46;79.92
75933;BME280;64803;52.356;5.310;2023-04-06T02:28:43;102017.81;;;3.45;79.75
75933;BME280;64803;52.356;5.310;2023-04-06T02:31:09;102021.09;;;3.49;79.61
75933;BME280;64803;52.356;5.310;2023-04-06T02:33:35;102013.84;;;3.51;78.89
75933;BME280;64803;52.356;5.310;2023-04-06T02:36:01;102011.19;;;3.51;79.62
75933;BME280;64803;52.356;5.310;2023-04-06T02:38:28;102014.59;;;3.53;79.97
75933;BME280;64803;52.356;5.310;2023-04-06T02:40:54;102003.97;;;3.53;79.42
75933;BME280;64803;52.356;5.310;2023-04-06T02:43:23;102012.47;;;3.58;79.33
75933;BME280;64803;52.356;5.310;2023-04-06T02:45:54;102010.56;;;3.60;78.93
75933;BME280;64803;52.356;5.310;2023-04-06T02:48:21;102010.56;;;3.60;79.53
75933;BME280;64803;52.356;5.310;2023-04-06T02:50:47;101997.41;;;3.58;79.37
75933;BME280;64803;52.356;5.310;2023-04-06T02:53:13;101992.84;;;3.60;78.83
75933;BME280;64803;52.356;5.310;2023-04-06T02:55:39;101991.03;;;3.61;79.10
75933;BME280;64803;52.356;5.310;2023-04-06T02:58:06;101989.97;;;3.63;79.69
75933;BME280;64803;52.356;5.310;2023-04-06T03:00:42;101985.75;;;3.61;79.25
75933;BME280;64803;52.356;5.310;2023-04-06T03:03:08;101990.59;;;3.67;79.92
75933;BME280;64803;52.356;5.310;2023-04-06T03:05:34;101985.28;;;3.67;79.25
75933;BME280;64803;52.356;5.310;2023-04-06T03:08:00;101982.63;;;3.67;79.01
75933;BME280;64803;52.356;5.310;2023-04-06T03:10:36;101973.72;;;3.68;79.53
75933;BME280;64803;52.356;5.310;2023-04-06T03:13:02;101977.22;;;3.68;79.11
75933;BME280;64803;52.356;5.310;2023-04-06T03:15:48;101975.31;;;3.70;79.39
75933;BME280;64803;52.356;5.310;2023-04-06T03:18:24;101977.84;;;3.72;80.00
75933;BME280;64803;52.356;5.310;2023-04-06T03:20:51;101965.66;;;3.69;79.87
75933;BME280;64803;52.356;5.310;2023-04-06T03:23:20;101963.63;;;3.73;79.55
75933;BME280;64803;52.356;5.310;2023-04-06T03:25:53;101968.72;;;3.76;79.82
75933;BME280;64803;52.356;5.310;2023-04-06T03:28:20;101960.53;;;3.79;79.48
75933;BME280;64803;52.356;5.310;2023-04-06T03:30:53;101959.59;;;3.80;79.00
75933;BME280;64803;52.356;5.310;2023-04-06T03:33:34;101957.13;;;3.77;78.89
75933;BME280;64803;52.356;5.310;2023-04-06T03:36:00;101961.16;;;3.82;78.26
75933;BME280;64803;52.356;5.310;2023-04-06T03:38:26;101956.94;;;3.80;78.65
75933;BME280;64803;52.356;5.310;2023-04-06T03:40:53;101958.63;;;3.81;79.19
75933;BME280;64803;52.356;5.310;2023-04-06T03:43:23;101939.84;;;3.71;78.85
75933;BME280;64803;52.356;5.310;2023-04-06T03:45:49;101945.34;;;3.81;78.34
75933;BME280;64803;52.356;5.310;2023-04-06T03:48:16;101945.22;;;3.82;78.56
75933;BME280;64803;52.356;5.310;2023-04-06T03:50:42;101943.66;;;3.80;78.60
75933;BME280;64803;52.356;5.310;2023-04-06T03:53:08;101937.38;;;3.81;78.29
75933;BME280;64803;52.356;5.310;2023-04-06T03:55:34;101940.03;;;3.81;78.12
75933;BME280;64803;52.356;5.310;2023-04-06T03:58:00;101934.19;;;3.76;78.28
75933;BME280;64803;52.356;5.310;2023-04-06T04:00:26;101937.81;;;3.75;78.21
75933;BME280;64803;52.356;5.310;2023-04-06T04:02:54;101914.78;;;3.63;78.72
75933;BME280;64803;52.356;5.310;2023-04-06T04:05:20;101936.22;;;3.72;78.96
75933;BME280;64803;52.356;5.310;2023-04-06T04:07:51;101927.72;;;3.67;78.34
75933;BME280;64803;52.356;5.310;2023-04-06T04:10:19;101937.25;;;3.70;78.44
75933;BME280;64803;52.356;5.310;2023-04-06T04:12:46;101937.50;;;3.67;79.10
75933;BME280;64803;52.356;5.310;2023-04-06T04:15:12;101931.53;;;3.63;79.14
75933;BME280;64803;52.356;5.310;2023-04-06T04:17:38;101928.34;;;3.58;79.31
75933;BME280;64803;52.356;5.310;2023-04-06T04:20:05;101900.13;;;3.32;79.43
75933;BME280;64803;52.356;5.310;2023-04-06T04:22:31;101933.03;;;3.42;79.42
75933;BME280;64803;52.356;5.310;2023-04-06T04:24:58;101938.78;;;3.36;79.33
75933;BME280;64803;52.356;5.310;2023-04-06T04:27:24;101941.94;;;3.28;80.23
75933;BME280;64803;52.356;5.310;2023-04-06T04:29:51;101936.22;;;3.22;80.15
75933;BME280;64803;52.356;5.310;2023-04-06T04:32:17;101943.53;;;3.18;80.41
75933;BME280;64803;52.356;5.310;2023-04-06T04:34:44;101935.97;;;3.12;80.94
75933;BME280;64803;52.356;5.310;2023-04-06T04:37:20;101935.22;;;3.10;80.95
75933;BME280;64803;52.356;5.310;2023-04-06T04:39:50;101942.47;;;3.08;81.41
75933;BME280;64803;52.356;5.310;2023-04-06T04:42:16;101934.69;;;3.05;81.47
75933;BME280;64803;52.356;5.310;2023-04-06T04:44:48;101936.41;;;3.06;82.75
75933;BME280;64803;52.356;5.310;2023-04-06T04:47:20;101934.50;;;3.08;82.17
75933;BME280;64803;52.356;5.310;2023-04-06T04:49:47;101931.09;;;3.06;82.68
75933;BME280;64803;52.356;5.310;2023-04-06T04:52:19;101926.31;;;3.11;82.71
75933;BME280;64803;52.356;5.310;2023-04-06T04:55:00;101933.22;;;3.14;82.15
75933;BME280;64803;52.356;5.310;2023-04-06T04:57:28;101926.00;;;3.16;82.82
75933;BME280;64803;52.356;5.310;2023-04-06T04:59:54;101921.34;;;3.19;82.37
75933;BME280;64803;52.356;5.310;2023-04-06T05:02:21;101924.75;;;3.21;82.15
75933;BME280;64803;52.356;5.310;2023-04-06T05:05:09;101925.38;;;3.25;83.42
75933;BME280;64803;52.356;5.310;2023-04-06T05:07:35;101921.78;;;3.26;83.34
75933;BME280;64803;52.356;5.310;2023-04-06T05:10:02;101918.59;;;3.33;82.45
75933;BME280;64803;52.356;5.310;2023-04-06T05:12:34;101916.69;;;3.35;82.93
75933;BME280;64803;52.356;5.310;2023-04-06T05:15:09;101921.59;;;3.41;82.09
75933;BME280;64803;52.356;5.310;2023-04-06T05:17:36;101921.88;;;3.50;82.17
75933;BME280;64803;52.356;5.310;2023-04-06T05:20:04;101912.75;;;3.54;82.08
75933;BME280;64803;52.356;5.310;2023-04-06T05:22:34;101914.78;;;3.63;82.10
75933;BME280;64803;52.356;5.310;2023-04-06T05:25:05;101913.28;;;3.71;81.40
75933;BME280;64803;52.356;5.310;2023-04-06T05:27:32;101917.91;;;3.80;81.48
75933;BME280;64803;52.356;5.310;2023-04-06T05:30:02;101893.94;;;3.82;81.55
75933;BME280;64803;52.356;5.310;2023-04-06T05:32:32;101908.75;;;3.97;80.54
75933;BME280;64803;52.356;5.310;2023-04-06T05:34:58;101914.25;;;4.06;80.72
75933;BME280;64803;52.356;5.310;2023-04-06T05:37:24;101905.00;;;4.12;80.85
75933;BME280;64803;52.356;5.310;2023-04-06T05:39:51;101906.59;;;4.14;80.31
75933;BME280;64803;52.356;5.310;2023-04-06T05:42:17;101901.03;;;4.17;79.88
75933;BME280;64803;52.356;5.310;2023-04-06T05:44:50;101895.28;;;4.23;80.66
75933;BME280;64803;52.356;5.310;2023-04-06T05:47:16;101908.00;;;4.31;80.32
75933;BME280;64803;52.356;5.310;2023-04-06T05:49:46;101909.88;;;4.41;80.18
75933;BME280;64803;52.356;5.310;2023-04-06T05:52:20;101903.38;;;4.45;79.81
75933;BME280;64803;52.356;5.310;2023-04-06T05:54:47;101894.56;;;4.45;80.24
75933;BME280;64803;52.356;5.310;2023-04-06T05:57:13;101903.53;;;4.55;80.17
75933;BME280;64803;52.356;5.310;2023-04-06T05:59:39;101900.19;;;4.64;79.88
75933;BME280;64803;52.356;5.310;2023-04-06T06:02:05;101901.91;;;4.65;79.24
75933;BME280;64803;52.356;5.310;2023-04-06T06:04:35;101900.63;;;4.71;79.69
75933;BME280;64803;52.356;5.310;2023-04-06T06:07:02;101901.22;;;4.74;80.20
75933;BME280;64803;52.356;5.310;2023-04-06T06:09:37;101914.41;;;4.76;80.80
75933;BME280;64803;52.356;5.310;2023-04-06T06:12:35;101898.34;;;4.77;80.09
75933;BME280;64803;52.356;5.310;2023-04-06T06:15:02;101900.94;;;4.90;80.21
75933;BME280;64803;52.356;5.310;2023-04-06T06:17:32;101898.97;;;4.92;80.68
75933;BME280;64803;52.356;5.310;2023-04-06T06:19:58;101895.25;;;4.94;80.01
75933;BME280;64803;52.356;5.310;2023-04-06T06:22:26;101893.81;;;5.01;79.22
75933;BME280;64803;52.356;5.310;2023-04-06T06:24:53;101891.28;;;5.00;80.00
75933;BME280;64803;52.356;5.310;2023-04-06T06:27:20;101886.81;;;5.00;80.21
75933;BME280;64803;52.356;5.310;2023-04-06T06:29:47;101890.69;;;5.07;80.14
75933;BME280;64803;52.356;5.310;2023-04-06T06:32:13;101888.41;;;5.14;81.17
75933;BME280;64803;52.356;5.310;2023-04-06T06:34:40;101887.91;;;5.20;80.97
75933;BME280;64803;52.356;5.310;2023-04-06T06:37:08;101891.69;;;5.28;80.86
75933;BME280;64803;52.356;5.310;2023-04-06T06:39:36;101891.22;;;5.34;80.30
75933;BME280;64803;52.356;5.310;2023-04-06T06:42:02;101896.31;;;5.48;81.07
75933;BME280;64803;52.356;5.310;2023-04-06T06:45:01;101900.91;;;5.68;80.30
75933;BME280;64803;52.356;5.310;2023-04-06T06:47:27;101888.09;;;5.85;80.44
75933;BME280;64803;52.356;5.310;2023-04-06T06:49:53;101886.91;;;6.00;79.69
75933;BME280;64803;52.356;5.310;2023-04-06T06:52:19;101890.72;;;6.18;79.00
75933;BME280;64803;52.356;5.310;2023-04-06T06:54:45;101881.59;;;6.31;77.08
75933;BME280;64803;52.356;5.310;2023-04-06T06:57:11;101889.19;;;6.47;77.81
75933;BME280;64803;52.356;5.310;2023-04-06T06:59:37;101880.91;;;6.61;77.72
75933;BME280;64803;52.356;5.310;2023-04-06T07:02:03;101882.06;;;6.68;76.62
75933;BME280;64803;52.356;5.310;2023-04-06T07:04:29;101888.97;;;6.81;75.70
75933;BME280;64803;52.356;5.310;2023-04-06T07:06:55;101885.88;;;6.86;76.53
75933;BME280;64803;52.356;5.310;2023-04-06T07:09:21;101881.06;;;6.80;74.69
75933;BME280;64803;52.356;5.310;2023-04-06T07:11:47;101875.84;;;6.78;74.42
75933;BME280;64803;52.356;5.310;2023-04-06T07:14:15;101877.09;;;6.74;74.57
75933;BME280;64803;52.356;5.310;2023-04-06T07:16:41;101879.88;;;6.73;75.78
75933;BME280;64803;52.356;5.310;2023-04-06T07:19:07;101884.84;;;6.77;74.84
75933;BME280;64803;52.356;5.310;2023-04-06T07:21:36;101870.91;;;6.74;75.54
75933;BME280;64803;52.356;5.310;2023-04-06T07:24:02;101871.16;;;6.71;74.29
75933;BME280;64803;52.356;5.310;2023-04-06T07:26:28;101877.19;;;6.73;74.03
75933;BME280;64803;52.356;5.310;2023-04-06T07:28:54;101874.53;;;6.73;74.22
75933;BME280;64803;52.356;5.310;2023-04-06T07:31:22;101873.56;;;6.74;75.47
75933;BME280;64803;52.356;5.310;2023-04-06T07:33:49;101872.34;;;6.78;76.42
75933;BME280;64803;52.356;5.310;2023-04-06T07:36:16;101872.34;;;6.78;75.61
75933;BME280;64803;52.356;5.310;2023-04-06T07:38:43;101876.88;;;6.87;76.42
75933;BME280;64803;52.356;5.310;2023-04-06T07:41:12;101868.38;;;6.93;74.60
75933;BME280;64803;52.356;5.310;2023-04-06T07:43:38;101858.94;;;6.89;75.26
75933;BME280;64803;52.356;5.310;2023-04-06T07:46:06;101867.97;;;6.98;76.24
75933;BME280;64803;52.356;5.310;2023-04-06T07:48:32;101873.53;;;7.06;75.12
75933;BME280;64803;52.356;5.310;2023-04-06T07:51:03;101863.88;;;7.14;74.32
75933;BME280;64803;52.356;5.310;2023-04-06T07:53:32;101865.78;;;7.23;73.88
75933;BME280;64803;52.356;5.310;2023-04-06T07:55:58;101865.94;;;7.31;73.09
75933;BME280;64803;52.356;5.310;2023-04-06T07:58:25;101860.47;;;7.33;73.14
75933;BME280;64803;52.356;5.310;2023-04-06T08:00:50;101864.00;;;7.33;72.47
75933;BME280;64803;52.356;5.310;2023-04-06T08:03:17;101861.84;;;7.48;73.78
75933;BME280;64803;52.356;5.310;2023-04-06T08:05:44;101859.03;;;7.49;72.33
75933;BME280;64803;52.356;5.310;2023-04-06T08:08:10;101867.75;;;7.51;72.23
75933;BME280;64803;52.356;5.310;2023-04-06T08:10:36;101864.69;;;7.56;71.89
75933;BME280;64803;52.356;5.310;2023-04-06T08:13:01;101861.00;;;7.57;72.00
75933;BME280;64803;52.356;5.310;2023-04-06T08:15:28;101864.69;;;7.65;71.46
75933;BME280;64803;52.356;5.310;2023-04-06T08:17:54;101861.38;;;7.73;70.36
75933;BME280;64803;52.356;5.310;2023-04-06T08:20:22;101868.72;;;7.80;73.04
75933;BME280;64803;52.356;5.310;2023-04-06T08:22:48;101852.13;;;7.86;72.69
75933;BME280;64803;52.356;5.310;2023-04-06T08:25:15;101862.28;;;7.92;71.84
75933;BME280;64803;52.356;5.310;2023-04-06T08:27:40;101863.97;;;7.93;70.15
75933;BME280;64803;52.356;5.310;2023-04-06T08:30:07;101871.03;;;8.04;71.26
75933;BME280;64803;52.356;5.310;2023-04-06T08:32:33;101863.63;;;8.17;71.01
75933;BME280;64803;52.356;5.310;2023-04-06T08:34:59;101866.06;;;8.30;72.70
75933;BME280;64803;52.356;5.310;2023-04-06T08:37:25;101857.34;;;8.28;71.14
75933;BME280;64803;52.356;5.310;2023-04-06T08:39:51;101867.75;;;8.31;71.95
75933;BME280;64803;52.356;5.310;2023-04-06T08:42:21;101860.56;;;8.31;70.63
75933;BME280;64803;52.356;5.310;2023-04-06T08:44:50;101856.75;;;8.34;71.90
75933;BME280;64803;52.356;5.310;2023-04-06T08:47:19;101856.50;;;8.37;73.18
75933;BME280;64803;52.356;5.310;2023-04-06T08:49:45;101843.13;;;8.37;72.44
75933;BME280;64803;52.356;5.310;2023-04-06T08:52:11;101852.28;;;8.44;71.47
75933;BME280;64803;52.356;5.310;2023-04-06T08:54:38;101825.66;;;8.52;72.50
75933;BME280;64803;52.356;5.310;2023-04-06T08:57:05;101843.81;;;8.67;71.25
75933;BME280;64803;52.356;5.310;2023-04-06T08:59:32;101843.69;;;8.69;72.19
75933;BME280;64803;52.356;5.310;2023-04-06T09:01:59;101836.22;;;8.72;70.66
75933;BME280;64803;52.356;5.310;2023-04-06T09:04:28;101845.22;;;8.81;71.11
75933;BME280;64803;52.356;5.310;2023-04-06T09:06:54;101841.81;;;8.98;69.23
75933;BME280;64803;52.356;5.310;2023-04-06T09:09:20;101839.56;;;9.03;69.64
75933;BME280;64803;52.356;5.310;2023-04-06T09:11:49;101843.06;;;9.13;70.35
75933;BME280;64803;52.356;5.310;2023-04-06T09:14:17;101849.97;;;9.16;68.77
75933;BME280;64803;52.356;5.310;2023-04-06T09:16:45;101848.94;;;9.36;69.02
75933;BME280;64803;52.356;5.310;2023-04-06T09:19:12;101849.84;;;9.54;68.23
75933;BME280;64803;52.356;5.310;2023-04-06T09:21:38;101852.41;;;9.55;67.76
75933;BME280;64803;52.356;5.310;2023-04-06T09:24:07;101852.03;;;9.68;67.24
75933;BME280;64803;52.356;5.310;2023-04-06T09:26:44;101847.34;;;9.79;68.64
75933;BME280;64803;52.356;5.310;2023-04-06T09:29:22;101846.03;;;9.83;67.40
75933;BME280;64803;52.356;5.310;2023-04-06T09:31:48;101857.47;;;9.85;68.17
75933;BME280;64803;52.356;5.310;2023-04-06T09:34:22;101860.47;;;9.82;68.60
75933;BME280;64803;52.356;5.310;2023-04-06T09:36:51;101861.16;;;9.84;69.27
75933;BME280;64803;52.356;5.310;2023-04-06T09:39:20;101845.09;;;10.02;68.63
75933;BME280;64803;52.356;5.310;2023-04-06T09:41:50;101848.75;;;10.10;67.69
75933;BME280;64803;52.356;5.310;2023-04-06T09:44:16;101852.84;;;10.14;67.92
75933;BME280;64803;52.356;5.310;2023-04-06T09:46:43;101853.31;;;10.00;69.22
75933;BME280;64803;52.356;5.310;2023-04-06T09:49:11;101849.47;;;10.12;68.56
75933;BME280;64803;52.356;5.310;2023-04-06T09:52:01;101841.56;;;10.01;69.21
75933;BME280;64803;52.356;5.310;2023-04-06T09:54:28;101845.91;;;10.12;66.94
75933;BME280;64803;52.356;5.310;2023-04-06T10:02:05;101840.28;;;10.50;68.87
75933;BME280;64803;52.356;5.310;2023-04-06T10:04:43;101846.94;;;10.64;66.43
75933;BME280;64803;52.356;5.310;2023-04-06T10:07:12;101847.56;;;10.75;67.18
75933;BME280;64803;52.356;5.310;2023-04-06T10:09:38;101853.47;;;10.79;67.31
75933;BME280;64803;52.356;5.310;2023-04-06T10:12:05;101830.78;;;10.56;72.04
75933;BME280;64803;52.356;5.310;2023-04-06T10:14:33;101855.47;;;10.42;76.66
75933;BME280;64803;52.356;5.310;2023-04-06T10:17:05;101853.50;;;10.61;79.32
75933;BME280;64803;52.356;5.310;2023-04-06T10:19:59;101848.44;;;10.41;80.83
75933;BME280;64803;52.356;5.310;2023-04-06T10:22:43;101849.50;;;10.30;83.04
75933;BME280;64803;52.356;5.310;2023-04-06T10:25:10;101857.03;;;10.17;84.73
75933;BME280;64803;52.356;5.310;2023-04-06T10:27:36;101854.00;;;10.30;86.47
75933;BME280;64803;52.356;5.310;2023-04-06T10:30:04;101852.06;;;10.22;84.08
75933;BME280;64803;52.356;5.310;2023-04-06T10:32:38;101852.13;;;10.12;84.60
75933;BME280;64803;52.356;5.310;2023-04-06T10:35:10;101852.41;;;10.09;85.87
75933;BME280;64803;52.356;5.310;2023-04-06T10:37:52;101845.25;;;10.28;86.61
75933;BME280;64803;52.356;5.310;2023-04-06T10:40:23;101838.50;;;9.96;85.40
75933;BME280;64803;52.356;5.310;2023-04-06T10:42:54;101831.22;;;10.06;86.02
75933;BME280;64803;52.356;5.310;2023-04-06T10:45:23;101834.22;;;10.03;85.33
75933;BME280;64803;52.356;5.310;2023-04-06T10:47:53;101836.13;;;9.93;84.21
75933;BME280;64803;52.356;5.310;2023-04-06T10:50:20;101838.66;;;9.95;85.03
75933;BME280;64803;52.356;5.310;2023-04-06T10:52:46;101840.56;;;10.02;86.23
75933;BME280;64803;52.356;5.310;2023-04-06T10:55:14;101831.53;;;10.03;85.82
75933;BME280;64803;52.356;5.310;2023-04-06T10:57:40;101837.31;;;10.08;86.70
75933;BME280;64803;52.356;5.310;2023-04-06T11:00:07;101831.47;;;9.95;88.47
75933;BME280;64803;52.356;5.310;2023-04-06T11:02:37;101820.81;;;10.03;87.51
75933;BME280;64803;52.356;5.310;2023-04-06T11:05:07;101833.22;;;10.04;88.96
75933;BME280;64803;52.356;5.310;2023-04-06T11:07:33;101826.28;;;9.84;89.80
75933;BME280;64803;52.356;5.310;2023-04-06T11:09:59;101816.84;;;9.80;91.20
75933;BME280;64803;52.356;5.310;2023-04-06T11:12:26;101821.50;;;9.78;92.60
75933;BME280;64803;52.356;5.310;2023-04-06T11:15:01;101815.09;;;9.62;90.59
75933;BME280;64803;52.356;5.310;2023-04-06T11:17:32;101818.97;;;9.50;91.67
75933;BME280;64803;52.356;5.310;2023-04-06T11:19:59;101824.75;;;9.45;93.42
75933;BME280;64803;52.356;5.310;2023-04-06T11:22:26;101814.47;;;9.41;93.86
75933;BME280;64803;52.356;5.310;2023-04-06T11:24:52;101816.38;;;9.31;95.12
75933;BME280;64803;52.356;5.310;2023-04-06T11:27:19;101815.19;;;9.43;95.21
75933;BME280;64803;52.356;5.310;2023-04-06T11:29:46;101801.63;;;9.44;94.30
75933;BME280;64803;52.356;5.310;2023-04-06T11:32:20;101812.25;;;9.36;96.11
75933;BME280;64803;52.356;5.310;2023-04-06T11:34:47;101799.81;;;9.35;95.42
75933;BME280;64803;52.356;5.310;2023-04-06T11:37:13;101804.72;;;9.40;96.13
75933;BME280;64803;52.356;5.310;2023-04-06T11:39:50;101809.34;;;9.20;95.71
75933;BME280;64803;52.356;5.310;2023-04-06T11:42:28;101806.81;;;9.19;96.14
75933;BME280;64803;52.356;5.310;2023-04-06T11:44:56;101812.44;;;9.16;97.59
75933;BME280;64803;52.356;5.310;2023-04-06T11:47:33;101802.16;;;9.11;97.46
75933;BME280;64803;52.356;5.310;2023-04-06T11:50:11;101798.38;;;9.04;97.40
75933;BME280;64803;52.356;5.310;2023-04-06T11:52:39;101795.84;;;9.02;98.16
75933;BME280;64803;52.356;5.310;2023-04-06T11:57:40;101798.09;;;9.07;99.87
75933;BME280;64803;52.356;5.310;2023-04-06T12:00:08;101787.13;;;8.91;99.89
75933;BME280;64803;52.356;5.310;2023-04-06T12:02:44;101755.31;;;8.78;100.00
75933;BME280;64803;52.356;5.310;2023-04-06T12:05:11;101792.41;;;9.10;100.00
75933;BME280;64803;52.356;5.310;2023-04-06T12:07:37;101785.13;;;9.02;99.99
75933;BME280;64803;52.356;5.310;2023-04-06T12:10:03;101778.91;;;9.02;100.00
75933;BME280;64803;52.356;5.310;2023-04-06T12:12:30;101761.31;;;8.99;100.00
75933;BME280;64803;52.356;5.310;2023-04-06T12:14:57;101783.25;;;9.22;100.00
75933;BME280;64803;52.356;5.310;2023-04-06T12:17:23;101772.94;;;9.27;100.00
75933;BME280;64803;52.356;5.310;2023-04-06T12:19:49;101779.31;;;9.53;100.00
75933;BME280;64803;52.356;5.310;2023-04-06T12:22:15;101776.72;;;9.61;100.00
75933;BME280;64803;52.356;5.310;2023-04-06T12:24:41;101780.09;;;9.63;100.00
75933;BME280;64803;52.356;5.310;2023-04-06T12:27:07;101782.84;;;9.71;100.00
75933;BME280;64803;52.356;5.310;2023-04-06T12:29:34;101778.97;;;9.66;100.00
75933;BME280;64803;52.356;5.310;2023-04-06T12:32:00;101784.94;;;9.50;100.00
75933;BME280;64803;52.356;5.310;2023-04-06T12:34:27;101774.03;;;9.34;100.00
75933;BME280;64803;52.356;5.310;2023-04-06T12:36:53;101769.91;;;9.03;100.00
75933;BME280;64803;52.356;5.310;2023-04-06T12:39:19;101744.03;;;8.65;100.00
75933;BME280;64803;52.356;5.310;2023-04-06T12:41:46;101771.34;;;8.88;100.00
75933;BME280;64803;52.356;5.310;2023-04-06T12:44:12;101774.72;;;8.80;100.00
75933;BME280;64803;52.356;5.310;2023-04-06T12:46:40;101771.94;;;8.72;100.00
75933;BME280;64803;52.356;5.310;2023-04-06T12:49:08;101769.81;;;8.85;100.00
75933;BME280;64803;52.356;5.310;2023-04-06T12:51:34;101751.53;;;8.71;100.00
75933;BME280;64803;52.356;5.310;2023-04-06T12:54:00;101722.88;;;8.72;100.00
75933;BME280;64803;52.356;5.310;2023-04-06T12:56:26;101762.34;;;8.89;100.00
75933;BME280;64803;52.356;5.310;2023-04-06T12:58:53;101754.31;;;8.89;100.00
75933;BME280;64803;52.356;5.310;2023-04-06T13:01:19;101754.97;;;9.00;100.00
75933;BME280;64803;52.356;5.310;2023-04-06T13:03:45;101753.28;;;8.90;100.00
75933;BME280;64803;52.356;5.310;2023-04-06T13:06:11;101751.88;;;8.86;100.00
75933;BME280;64803;52.356;5.310;2023-04-06T13:08:39;101742.19;;;8.85;100.00
75933;BME280;64803;52.356;5.310;2023-04-06T13:11:05;101756.28;;;8.87;100.00
75933;BME280;64803;52.356;5.310;2023-04-06T13:13:34;101738.13;;;8.71;100.00